Time;durP1;ratioP1;P1;durP2;ratioP2;P2;SDS_P1;SDS_P2;PMS_P1;PMS_P2;Temp;Humidity;BMP_temperature;BMP_pressure;BME280_temperature;BME280_humidity;BME280_pressure;Samples;Min_cycle;Max_cycle;Signal;HPM_P1;HPM_P2
2023/01/28 00:01:09;;;;;;;0.63;0.63;;;5.20;99.90;;;;;;5052337;28;20033;-81
2023/01/28 00:03:35;;;;;;;0.47;0.40;;;5.30;99.90;;;;;;5052681;28;20396;-81
2023/01/28 00:06:11;;;;;;;3.03;1.85;;;5.40;99.90;;;;;;5052200;28;20095;-80
2023/01/28 00:08:37;;;;;;;0.10;0.10;;;5.50;99.90;;;;;;5051054;28;20037;-80
2023/01/28 00:11:04;;;;;;;0.45;0.45;;;5.60;99.90;;;;;;5052292;28;20024;-81
2023/01/28 00:13:31;;;;;;;0.10;0.10;;;5.70;99.90;;;;;;5052133;28;20573;-81
2023/01/28 00:15:59;;;;;;;0.75;0.63;;;5.80;99.90;;;;;;5052200;28;20032;-80
2023/01/28 00:18:25;;;;;;;5.72;1.02;;;5.80;99.90;;;;;;5051863;28;20481;-80
2023/01/28 00:20:59;;;;;;;0.30;0.30;;;5.80;99.90;;;;;;5052291;28;20059;-80
2023/01/28 00:23:26;;;;;;;0.10;0.10;;;5.90;99.90;;;;;;5051909;28;20041;-81
2023/01/28 00:25:53;;;;;;;1.38;1.27;;;5.80;99.90;;;;;;5050992;28;20463;-80
2023/01/28 00:28:19;;;;;;;1.55;1.00;;;5.80;99.90;;;;;;5050861;28;20432;-80
2023/01/28 00:30:45;;;;;;;0.10;0.10;;;5.90;99.90;;;;;;5052112;28;20025;-80
2023/01/28 00:33:11;;;;;;;0.17;0.17;;;5.70;99.90;;;;;;5050547;28;20163;-80
2023/01/28 00:35:36;;;;;;;3.90;1.48;;;5.60;99.90;;;;;;5051205;28;20033;-81
2023/01/28 00:38:03;;;;;;;0.03;0.03;;;5.50;99.90;;;;;;5052849;28;20037;-80
2023/01/28 00:40:30;;;;;;;0.47;0.47;;;5.50;99.90;;;;;;5051955;28;20041;-80
2023/01/28 00:42:56;;;;;;;0.10;0.10;;;5.30;99.90;;;;;;5050933;28;20033;-81
2023/01/28 00:45:21;;;;;;;0.63;0.60;;;5.30;99.90;;;;;;5050732;28;20072;-80
2023/01/28 00:47:47;;;;;;;0.17;0.17;;;5.10;99.90;;;;;;5050336;28;20021;-80
2023/01/28 00:50:13;;;;;;;0.10;0.10;;;5.20;99.90;;;;;;5050880;28;20040;-80
2023/01/28 00:52:39;;;;;;;0.38;0.32;;;5.30;99.90;;;;;;5052153;28;20396;-80
2023/01/28 00:55:06;;;;;;;0.10;0.10;;;5.30;99.90;;;;;;5052230;28;20040;-80
2023/01/28 00:57:32;;;;;;;0.35;0.35;;;5.20;99.90;;;;;;5050583;28;20434;-81
2023/01/28 00:59:59;;;;;;;0.10;0.10;;;5.30;99.90;;;;;;5050837;28;20111;-80
2023/01/28 01:02:25;;;;;;;0.98;0.85;;;5.30;99.90;;;;;;5050397;28;20029;-80
2023/01/28 01:04:57;;;;;;;0.52;0.40;;;5.20;99.90;;;;;;5050596;28;20115;-80
2023/01/28 01:07:42;;;;;;;0.30;0.30;;;5.10;99.90;;;;;;5050558;28;20017;-80
2023/01/28 01:10:16;;;;;;;0.10;0.10;;;5.10;99.90;;;;;;5039550;28;20397;-80
2023/01/28 01:12:42;;;;;;;1.02;1.02;;;5.20;99.90;;;;;;5055524;28;20035;-81
2023/01/28 01:15:09;;;;;;;1.45;1.35;;;5.30;99.90;;;;;;5053684;28;20388;-80
2023/01/28 01:17:40;;;;;;;0.10;0.10;;;5.10;99.90;;;;;;5055090;28;20029;-80
2023/01/28 01:20:11;;;;;;;2.75;1.58;;;5.00;99.90;;;;;;5054013;28;20075;-80
2023/01/28 01:22:36;;;;;;;0.40;0.40;;;5.10;99.90;;;;;;5054000;28;20033;-80
2023/01/28 01:25:05;;;;;;;0.28;0.25;;;5.10;99.90;;;;;;5053739;28;20033;-79
2023/01/28 01:27:31;;;;;;;1.52;1.02;;;5.00;99.90;;;;;;5054067;28;20469;-80
2023/01/28 01:29:58;;;;;;;0.00;0.00;;;4.90;99.90;;;;;;5053698;28;20025;-80
2023/01/28 01:32:27;;;;;;;2.40;1.55;;;5.00;99.90;;;;;;5053828;28;20029;-80
2023/01/28 01:34:53;;;;;;;0.20;0.20;;;4.90;99.90;;;;;;5054974;28;20025;-79
2023/01/28 01:37:19;;;;;;;1.27;0.95;;;5.10;99.90;;;;;;5054726;28;20591;-80
2023/01/28 01:39:45;;;;;;;0.90;0.35;;;5.00;99.90;;;;;;5054105;28;20048;-80
2023/01/28 01:42:12;;;;;;;0.63;0.63;;;4.90;99.90;;;;;;5053382;28;20021;-80
2023/01/28 01:44:59;;;;;;;0.28;0.28;;;5.10;99.90;;;;;;5053294;28;20485;-80
2023/01/28 01:47:38;;;;;;;0.20;0.20;;;5.10;99.90;;;;;;5053376;28;20033;-81
2023/01/28 01:50:16;;;;;;;2.40;0.70;;;5.00;99.90;;;;;;5053510;28;20432;-80
2023/01/28 01:52:44;;;;;;;0.95;0.93;;;5.00;99.90;;;;;;5054285;28;20029;-80
2023/01/28 01:55:15;;;;;;;0.52;0.40;;;4.80;99.90;;;;;;5054838;28;20108;-80
2023/01/28 01:57:42;;;;;;;0.47;0.47;;;4.70;99.90;;;;;;5053358;28;20402;-80
2023/01/28 02:00:09;;;;;;;0.35;0.35;;;4.80;99.90;;;;;;5036368;28;20059;-80
2023/01/28 02:02:45;;;;;;;0.10;0.10;;;4.80;99.90;;;;;;5053319;28;20074;-80
2023/01/28 02:05:14;;;;;;;2.47;1.42;;;4.90;99.90;;;;;;5052916;28;20455;-80
2023/01/28 02:07:41;;;;;;;2.47;1.38;;;5.00;99.90;;;;;;5053212;28;20108;-78
2023/01/28 02:10:08;;;;;;;2.05;1.58;;;4.90;99.90;;;;;;5052934;28;20557;-80
2023/01/28 02:12:44;;;;;;;0.77;0.77;;;5.00;99.90;;;;;;5053238;28;20036;-81
2023/01/28 02:15:19;;;;;;;0.45;0.45;;;5.00;99.90;;;;;;5054057;28;20025;-80
2023/01/28 02:17:45;;;;;;;1.23;0.75;;;4.90;99.90;;;;;;5054631;28;20075;-80
2023/01/28 02:20:24;;;;;;;1.13;0.85;;;4.90;99.90;;;;;;5051929;28;20025;-80
2023/01/28 02:23:14;;;;;;;0.43;0.43;;;4.80;99.90;;;;;;5053152;28;20025;-81
2023/01/28 02:26:11;;;;;;;0.93;0.73;;;4.80;99.90;;;;;;5037947;28;20052;-81
2023/01/28 02:28:44;;;;;;;0.47;0.47;;;5.00;99.90;;;;;;5050996;28;20545;-80
2023/01/28 02:31:26;;;;;;;0.10;0.10;;;5.20;99.90;;;;;;5036374;28;20452;-81
2023/01/28 02:34:00;;;;;;;0.10;0.10;;;5.20;99.90;;;;;;5052527;28;20104;-80
2023/01/28 02:36:52;;;;;;;0.00;0.00;;;5.10;99.90;;;;;;5052540;28;20033;-80
2023/01/28 02:39:24;;;;;;;0.10;0.10;;;5.10;99.90;;;;;;5042146;28;20517;-81
2023/01/28 02:41:57;;;;;;;0.20;0.20;;;5.20;99.90;;;;;;5053119;28;20021;-80
2023/01/28 02:44:23;;;;;;;0.65;0.50;;;5.20;99.90;;;;;;5052452;28;20535;-78
2023/01/28 02:49:50;;;;;;;0.32;0.32;;;5.10;99.90;;;;;;5052280;28;20039;-80
2023/01/28 02:53:39;;;;;;;2.38;0.85;;;4.90;99.90;;;;;;5052225;28;20025;-80
2023/01/28 02:55:38;;;;;;;0.40;0.40;;;5.00;99.90;;;;;;5052012;28;20037;-80
2023/01/28 02:58:17;;;;;;;0.47;0.40;;;5.10;99.90;;;;;;5037747;28;20025;-80
2023/01/28 03:01:01;;;;;;;0.63;0.43;;;4.80;99.90;;;;;;5037095;28;20029;-80
2023/01/28 03:03:42;;;;;;;0.25;0.25;;;5.10;99.90;;;;;;5050302;28;20025;-80
2023/01/28 03:06:10;;;;;;;2.28;1.13;;;5.00;99.90;;;;;;5051780;28;20028;-80
2023/01/28 03:37:27;;;;;;;0.00;0.00;;;5.00;99.90;;;;;;5051219;28;20393;-79
2023/01/28 03:40:13;;;;;;;0.15;0.15;;;4.90;99.90;;;;;;5051849;28;20036;-80
2023/01/28 03:42:39;;;;;;;0.43;0.43;;;5.00;99.90;;;;;;5051430;28;20505;-80
2023/01/28 03:45:19;;;;;;;3.60;1.42;;;4.90;99.90;;;;;;5051461;28;20392;-80
2023/01/28 03:47:46;;;;;;;0.55;0.55;;;4.80;99.90;;;;;;5051255;28;20017;-80
2023/01/28 03:50:11;;;;;;;1.35;0.82;;;4.80;99.90;;;;;;5051456;28;20139;-80
2023/01/28 03:52:47;;;;;;;2.50;1.15;;;4.80;99.90;;;;;;5051435;28;20021;-80
2023/01/28 03:55:28;;;;;;;1.08;1.08;;;4.80;99.90;;;;;;5051081;28;20044;-80
2023/01/28 03:57:54;;;;;;;6.13;1.27;;;4.80;99.90;;;;;;5051323;28;20032;-79
2023/01/28 04:00:21;;;;;;;1.27;0.50;;;4.70;99.90;;;;;;5051019;28;20095;-80
2023/01/28 04:02:47;;;;;;;0.43;0.43;;;4.60;99.90;;;;;;5051093;28;20033;-80
2023/01/28 04:05:19;;;;;;;0.32;0.32;;;4.70;99.90;;;;;;5035483;28;20049;-80
2023/01/28 04:07:50;;;;;;;0.75;0.43;;;4.60;99.90;;;;;;5052642;28;20056;-80
2023/01/28 04:10:39;;;;;;;2.38;1.00;;;4.80;99.90;;;;;;5049919;28;20053;-79
2023/01/28 04:13:27;;;;;;;0.30;0.30;;;4.60;99.90;;;;;;5037632;28;20032;-80
2023/01/28 04:15:53;;;;;;;1.30;1.20;;;4.70;99.90;;;;;;5052306;28;20031;-80
2023/01/28 04:18:26;;;;;;;0.75;0.75;;;4.70;99.90;;;;;;5051186;28;20432;-79
2023/01/28 04:20:51;;;;;;;0.30;0.30;;;4.50;99.90;;;;;;5051100;28;20037;-80
2023/01/28 04:23:18;;;;;;;0.00;0.00;;;4.70;99.90;;;;;;5050785;28;20025;-75
2023/01/28 04:25:44;;;;;;;0.20;0.15;;;4.60;99.90;;;;;;5050900;28;20037;-80
2023/01/28 04:28:09;;;;;;;0.80;0.80;;;4.60;99.90;;;;;;5050826;28;20029;-80
2023/01/28 04:30:35;;;;;;;0.00;0.00;;;4.70;99.90;;;;;;5034754;28;20028;-79
2023/01/28 04:33:11;;;;;;;1.40;1.30;;;4.40;99.90;;;;;;5050821;28;20064;-80
2023/01/28 04:35:59;;;;;;;0.40;0.40;;;4.50;99.90;;;;;;5040884;28;20501;-80
2023/01/28 04:38:43;;;;;;;0.10;0.10;;;4.60;99.90;;;;;;5050887;28;20040;-77
2023/01/28 04:41:29;;;;;;;1.70;1.60;;;4.60;99.90;;;;;;5051163;28;20078;-78
2023/01/28 04:44:01;;;;;;;0.40;0.40;;;4.60;99.90;;;;;;5052739;28;20025;-80
2023/01/28 04:46:45;;;;;;;0.10;0.10;;;4.70;99.90;;;;;;5055833;28;20389;-79
2023/01/28 04:49:46;;;;;;;1.15;1.15;;;4.70;99.90;;;;;;5063800;28;20040;-80
2023/01/28 04:52:32;;;;;;;1.00;1.00;;;4.90;99.90;;;;;;5042462;28;20507;-80
2023/01/28 04:55:16;;;;;;;0.13;0.13;;;4.80;99.90;;;;;;5054713;28;20032;-79
2023/01/28 04:57:41;;;;;;;0.10;0.10;;;4.70;99.90;;;;;;5054113;28;20029;-78
2023/01/28 05:00:08;;;;;;;0.15;0.15;;;4.80;99.90;;;;;;5054608;28;20029;-79
2023/01/28 05:02:34;;;;;;;1.85;1.42;;;4.60;99.90;;;;;;5037453;28;20152;-80
2023/01/28 05:05:03;;;;;;;0.30;0.30;;;4.40;99.90;;;;;;5054343;28;20056;-80
2023/01/28 05:07:55;;;;;;;0.95;0.73;;;4.40;99.90;;;;;;5055586;28;20530;-79
2023/01/28 05:10:21;;;;;;;0.28;0.28;;;4.50;99.90;;;;;;5054315;28;20052;-80
2023/01/28 05:12:47;;;;;;;0.20;0.20;;;4.60;99.90;;;;;;5054299;28;20036;-80
2023/01/28 05:15:18;;;;;;;2.35;2.05;;;4.70;99.90;;;;;;5053948;28;20029;-79
2023/01/28 05:17:45;;;;;;;0.10;0.10;;;4.70;99.90;;;;;;5054205;28;20120;-79
2023/01/28 05:20:14;;;;;;;2.47;1.45;;;4.80;99.90;;;;;;5054259;28;20127;-79
2023/01/28 05:22:41;;;;;;;0.80;0.60;;;4.70;99.90;;;;;;5053639;28;20025;-81
2023/01/28 05:25:33;;;;;;;;;;;4.60;99.90;;;;;;5056124;28;20524;-80
2023/01/28 05:27:59;;;;;;;0.10;0.10;;;4.70;99.90;;;;;;5053658;28;19909;-80
2023/01/28 05:30:25;;;;;;;1.45;1.35;;;4.60;99.90;;;;;;5053883;28;20017;-80
2023/01/28 05:32:55;;;;;;;0.40;0.40;;;4.60;99.90;;;;;;5053766;28;20044;-80
2023/01/28 05:35:22;;;;;;;4.55;0.68;;;4.50;99.90;;;;;;5053702;28;20507;-80
2023/01/28 05:37:48;;;;;;;0.10;0.10;;;4.50;99.90;;;;;;5053198;28;20033;-79
2023/01/28 05:40:16;;;;;;;0.80;0.80;;;4.40;99.90;;;;;;5053816;28;20040;-80
2023/01/28 05:42:42;;;;;;;0.57;0.38;;;4.40;99.90;;;;;;5052878;28;20120;-80
2023/01/28 05:45:34;;;;;;;0.75;0.45;;;4.30;99.90;;;;;;5048757;28;20405;-80
2023/01/28 05:48:17;;;;;;;5.07;2.25;;;4.40;99.90;;;;;;5053714;28;20036;-80
2023/01/28 05:51:08;;;;;;;0.10;0.10;;;4.50;99.90;;;;;;5054820;28;20474;-80
2023/01/28 05:53:37;;;;;;;1.40;1.33;;;4.40;99.90;;;;;;5053584;28;20116;-80
2023/01/28 05:56:03;;;;;;;0.60;0.43;;;4.50;99.90;;;;;;5052517;28;20489;-80
2023/01/28 05:58:31;;;;;;;2.72;1.90;;;4.40;99.90;;;;;;5053139;28;20020;-80
2023/01/28 06:01:00;;;;;;;0.45;0.45;;;4.40;99.90;;;;;;5053216;28;20032;-79
2023/01/28 06:03:33;;;;;;;0.10;0.10;;;4.70;99.90;;;;;;5052950;28;20420;-80
2023/01/28 06:06:00;;;;;;;0.40;0.40;;;4.60;99.90;;;;;;5052818;28;20029;-80
2023/01/28 06:08:26;;;;;;;0.10;0.10;;;4.50;99.90;;;;;;5053038;28;20082;-79
2023/01/28 06:10:51;;;;;;;0.85;0.85;;;4.70;99.90;;;;;;5053146;28;20032;-80
2023/01/28 06:13:17;;;;;;;0.10;0.10;;;4.70;99.90;;;;;;5052820;28;20107;-80
2023/01/28 06:16:03;;;;;;;0.68;0.68;;;4.60;99.90;;;;;;5053236;28;20040;-80
2023/01/28 06:19:01;;;;;;;0.43;0.30;;;4.60;99.90;;;;;;5053053;28;20029;-80
2023/01/28 06:21:28;;;;;;;0.80;0.75;;;4.50;99.90;;;;;;5052588;28;20040;-80
2023/01/28 06:23:54;;;;;;;5.82;2.17;;;4.40;99.90;;;;;;5052716;28;20115;-80
2023/01/28 06:26:20;;;;;;;0.93;0.85;;;4.40;99.90;;;;;;5053023;28;20170;-80
2023/01/28 06:28:46;;;;;;;2.80;1.45;;;4.30;99.90;;;;;;5052036;28;20108;-79
2023/01/28 06:31:12;;;;;;;2.90;1.90;;;4.20;99.90;;;;;;5054027;28;20491;-80
2023/01/28 06:33:37;;;;;;;1.27;1.17;;;4.20;99.90;;;;;;5053648;28;20017;-79
2023/01/28 06:36:05;;;;;;;0.52;0.17;;;4.10;99.90;;;;;;5053786;28;20025;-80
2023/01/28 06:38:31;;;;;;;6.75;4.38;;;4.20;99.90;;;;;;5053865;28;20033;-80
2023/01/28 06:40:57;;;;;;;0.47;0.47;;;4.40;99.90;;;;;;5053865;28;20025;-80
2023/01/28 06:43:27;;;;;;;0.55;0.55;;;4.50;99.90;;;;;;5053770;28;20055;-80
2023/01/28 06:45:59;;;;;;;1.60;1.40;;;4.40;99.90;;;;;;5040008;28;20493;-80
2023/01/28 06:48:25;;;;;;;0.57;0.57;;;4.60;99.90;;;;;;5053245;28;20064;-80
2023/01/28 06:50:52;;;;;;;1.42;1.02;;;4.40;99.90;;;;;;5053329;28;20028;-80
2023/01/28 06:53:18;;;;;;;1.30;1.05;;;4.30;99.90;;;;;;5053657;28;20707;-80
2023/01/28 06:55:44;;;;;;;3.63;1.98;;;4.20;99.90;;;;;;5053307;28;20032;-80
2023/01/28 06:58:10;;;;;;;0.52;0.52;;;4.20;99.90;;;;;;5053464;28;20025;-80
2023/01/28 07:00:36;;;;;;;0.25;0.25;;;4.40;99.90;;;;;;5053333;28;20025;-81
2023/01/28 07:03:03;;;;;;;0.00;0.00;;;4.50;99.90;;;;;;5053186;28;20487;-81
2023/01/28 07:05:28;;;;;;;0.10;0.10;;;4.50;99.90;;;;;;5053220;28;20044;-80
2023/01/28 07:07:54;;;;;;;0.65;0.65;;;4.60;99.90;;;;;;5052190;28;20071;-80
2023/01/28 07:10:20;;;;;;;0.00;0.00;;;4.40;99.90;;;;;;5052542;28;20035;-81
2023/01/28 07:12:46;;;;;;;1.88;0.65;;;4.40;99.90;;;;;;5051629;28;20508;-79
2023/01/28 07:15:13;;;;;;;0.13;0.13;;;4.30;99.90;;;;;;5051716;28;20048;-81
2023/01/28 07:17:42;;;;;;;0.10;0.10;;;4.50;99.90;;;;;;5052820;28;20047;-80
2023/01/28 07:20:12;;;;;;;1.17;1.08;;;4.40;99.90;;;;;;5052952;28;20115;-80
2023/01/28 07:22:40;;;;;;;1.55;1.30;;;4.30;99.90;;;;;;5053339;28;20175;-81
2023/01/28 07:25:07;;;;;;;1.67;0.75;;;4.20;99.90;;;;;;5052704;28;20095;-81
2023/01/28 07:27:33;;;;;;;0.00;0.00;;;4.20;99.90;;;;;;5051821;28;20107;-81
2023/01/28 07:29:58;;;;;;;0.30;0.30;;;4.40;99.90;;;;;;5051415;28;20087;-81
2023/01/28 07:32:26;;;;;;;0.90;0.60;;;4.50;99.90;;;;;;5051306;28;20481;-80
2023/01/28 07:34:52;;;;;;;1.40;1.30;;;4.40;99.90;;;;;;5052853;28;20104;-80
2023/01/28 07:37:18;;;;;;;0.10;0.10;;;4.20;99.90;;;;;;5052529;28;20485;-81
2023/01/28 07:39:44;;;;;;;0.20;0.20;;;4.40;99.90;;;;;;5052917;28;20079;-81
2023/01/28 07:42:09;;;;;;;0.80;0.80;;;4.40;99.90;;;;;;5052571;28;20401;-81
2023/01/28 07:44:37;;;;;;;1.60;1.48;;;4.50;99.90;;;;;;5051453;28;20075;-82
2023/01/28 07:47:04;;;;;;;1.73;1.20;;;4.40;99.90;;;;;;5051981;28;20032;-81
2023/01/28 07:49:30;;;;;;;0.25;0.25;;;4.40;99.90;;;;;;5034828;28;20393;-80
2023/01/28 07:51:56;;;;;;;0.10;0.10;;;4.40;99.90;;;;;;5058568;28;20017;-80
2023/01/28 07:54:21;;;;;;;0.00;0.00;;;4.40;99.90;;;;;;5055315;28;20115;-81
2023/01/28 07:56:47;;;;;;;0.57;0.57;;;4.40;99.90;;;;;;5054922;28;20029;-80
2023/01/28 07:59:13;;;;;;;5.85;1.85;;;4.40;99.90;;;;;;5044323;28;20044;-79
2023/01/28 08:01:39;;;;;;;2.08;1.05;;;4.30;99.90;;;;;;5049651;28;20029;-80
2023/01/28 08:04:04;;;;;;;0.82;0.80;;;4.30;99.90;;;;;;5055749;28;20044;-76
2023/01/28 08:06:36;;;;;;;0.20;0.20;;;4.10;99.90;;;;;;5056452;28;20539;-80
2023/01/28 08:09:04;;;;;;;;;;;3.90;99.90;;;;;;5051786;28;20389;-79
2023/01/28 08:11:31;;;;;;;2.85;1.92;;;3.90;99.90;;;;;;5055268;28;19905;-77
2023/01/28 08:13:57;;;;;;;3.78;0.55;;;3.90;99.90;;;;;;5052811;28;20079;-80
2023/01/28 08:16:23;;;;;;;1.48;1.38;;;4.00;99.90;;;;;;5049776;28;20440;-79
2023/01/28 08:18:48;;;;;;;1.35;1.27;;;4.10;99.90;;;;;;5054304;28;20116;-77
2023/01/28 08:21:14;;;;;;;2.85;1.67;;;4.20;99.90;;;;;;5067585;28;20036;-79
2023/01/28 08:23:40;;;;;;;0.40;0.40;;;4.30;99.90;;;;;;5058986;28;20074;-79
2023/01/28 08:26:06;;;;;;;2.75;1.58;;;4.30;99.90;;;;;;5056293;28;20068;-79
2023/01/28 08:28:32;;;;;;;0.20;0.20;;;4.20;99.90;;;;;;5055886;28;20083;-79
2023/01/28 08:31:01;;;;;;;1.55;1.13;;;4.20;99.90;;;;;;5068508;28;20062;-79
2023/01/28 08:33:27;;;;;;;3.30;0.75;;;4.30;99.90;;;;;;5065009;28;20104;-78
2023/01/28 08:35:52;;;;;;;0.38;0.38;;;4.20;99.90;;;;;;5057678;28;20112;-80
2023/01/28 08:38:19;;;;;;;1.25;1.15;;;4.10;99.90;;;;;;5054436;28;20032;-78
2023/01/28 08:40:45;;;;;;;0.90;0.52;;;4.00;99.90;;;;;;5053666;28;20492;-79
2023/01/28 08:43:11;;;;;;;1.20;0.30;;;4.10;99.90;;;;;;5056456;28;20362;-78
2023/01/28 08:45:38;;;;;;;2.08;1.23;;;4.10;99.90;;;;;;5060260;28;20095;-78
2023/01/28 08:48:06;;;;;;;0.38;0.38;;;4.10;99.90;;;;;;5053946;28;20018;-79
2023/01/28 08:50:35;;;;;;;1.25;0.55;;;4.10;99.90;;;;;;5055124;28;20857;-79
2023/01/28 08:53:04;;;;;;;0.10;0.10;;;4.10;99.90;;;;;;5055644;28;20024;-80
2023/01/28 08:55:31;;;;;;;1.55;0.55;;;4.20;99.90;;;;;;5053030;28;20021;-79
2023/01/28 08:58:01;;;;;;;1.40;1.33;;;4.20;99.90;;;;;;5048606;28;20029;-80
2023/01/28 09:00:27;;;;;;;0.75;0.75;;;4.10;99.90;;;;;;5036768;28;20120;-79
2023/01/28 09:02:53;;;;;;;1.05;0.77;;;4.20;99.90;;;;;;5054487;28;20462;-79
2023/01/28 09:05:20;;;;;;;0.57;0.55;;;4.30;99.90;;;;;;5055927;28;20103;-80
2023/01/28 09:07:46;;;;;;;2.00;1.00;;;4.50;99.90;;;;;;5056437;28;20063;-79
2023/01/28 09:10:13;;;;;;;0.10;0.10;;;4.50;99.90;;;;;;5056442;28;20029;-80
2023/01/28 09:12:39;;;;;;;1.15;0.55;;;4.30;99.90;;;;;;5057114;28;20111;-79
2023/01/28 09:15:05;;;;;;;0.40;0.40;;;4.50;99.90;;;;;;5056436;28;20110;-80
2023/01/28 09:17:31;;;;;;;0.30;0.30;;;4.60;99.90;;;;;;5055694;28;20021;-80
2023/01/28 09:19:57;;;;;;;2.88;1.70;;;4.70;99.90;;;;;;5055834;28;20024;-80
2023/01/28 09:22:22;;;;;;;0.50;0.50;;;4.80;99.90;;;;;;5055986;28;20473;-78
2023/01/28 09:24:48;;;;;;;3.10;1.95;;;4.90;99.90;;;;;;5056258;28;20255;-80
2023/01/28 09:27:14;;;;;;;0.32;0.32;;;5.20;99.90;;;;;;5056189;28;20493;-79
2023/01/28 09:29:40;;;;;;;2.55;2.08;;;5.10;99.90;;;;;;5038046;28;20029;-79
2023/01/28 09:32:06;;;;;;;0.28;0.25;;;4.80;99.90;;;;;;5056745;28;20461;-79
2023/01/28 09:34:32;;;;;;;2.60;2.22;;;4.70;99.90;;;;;;5055771;28;20075;-80
2023/01/28 09:36:58;;;;;;;4.00;0.77;;;4.60;99.90;;;;;;5056609;28;20110;-78
2023/01/28 09:39:27;;;;;;;0.10;0.10;;;4.60;99.90;;;;;;5056083;28;20465;-79
2023/01/28 09:42:11;;;;;;;0.43;0.30;;;4.60;99.90;;;;;;5056735;28;20037;-80
2023/01/28 09:44:59;;;;;;;0.10;0.10;;;4.50;99.90;;;;;;5052532;28;20041;-79
2023/01/28 09:47:31;;;;;;;1.05;0.90;;;4.40;99.90;;;;;;5057987;28;20474;-79
2023/01/28 09:50:01;;;;;;;1.08;0.90;;;4.60;99.90;;;;;;5058121;28;20124;-79
2023/01/28 09:52:32;;;;;;;1.60;1.30;;;4.60;99.90;;;;;;5055482;28;20059;-79
2023/01/28 09:55:23;;;;;;;1.42;0.88;;;4.30;99.90;;;;;;5053748;28;20049;-79
2023/01/28 09:57:54;;;;;;;0.20;0.20;;;4.50;99.90;;;;;;5057951;28;20048;-78
2023/01/28 10:00:33;;;;;;;2.25;2.10;;;4.70;99.90;;;;;;5058098;28;20056;-79
2023/01/28 10:03:26;;;;;;;2.78;2.45;;;4.80;99.90;;;;;;5054490;28;20020;-79
2023/01/28 10:06:20;;;;;;;2.38;2.15;;;4.60;99.90;;;;;;5052465;28;20048;-79
2023/01/28 10:08:58;;;;;;;0.10;0.10;;;4.50;99.90;;;;;;5046822;28;20048;-79
2023/01/28 10:11:42;;;;;;;0.10;0.10;;;4.80;99.90;;;;;;5046961;28;20016;-79
2023/01/28 10:14:29;;;;;;;0.05;0.05;;;4.90;99.90;;;;;;5052067;28;20107;-79
2023/01/28 10:17:10;;;;;;;0.10;0.10;;;5.10;99.90;;;;;;5051556;28;20037;-77
2023/01/28 10:20:00;;;;;;;0.15;0.15;;;5.50;99.90;;;;;;5049649;28;20025;-79
2023/01/28 10:22:31;;;;;;;0.10;0.10;;;6.20;99.90;;;;;;5046225;28;20025;-78
2023/01/28 10:25:05;;;;;;;0.68;0.68;;;6.30;99.90;;;;;;5048650;28;20088;-75
2023/01/28 10:27:32;;;;;;;0.32;0.32;;;6.30;99.90;;;;;;5052943;28;20032;-76
2023/01/28 10:30:25;;;;;;;0.10;0.10;;;6.50;99.90;;;;;;5053336;28;20469;-78
2023/01/28 10:33:00;;;;;;;1.27;1.15;;;6.50;99.90;;;;;;5052046;28;20033;-79
2023/01/28 10:35:26;;;;;;;0.10;0.10;;;6.30;99.90;;;;;;5049867;28;20025;-80
2023/01/28 10:38:02;;;;;;;0.10;0.10;;;6.10;99.90;;;;;;5049748;28;20025;-77
2023/01/28 10:40:28;;;;;;;0.60;0.60;;;6.00;99.90;;;;;;5048511;28;20524;-76
2023/01/28 10:42:53;;;;;;;1.13;1.02;;;6.10;99.90;;;;;;5050772;28;20021;-76
2023/01/28 10:45:47;;;;;;;2.03;1.02;;;6.10;99.90;;;;;;5052567;28;20502;-75
2023/01/28 10:48:23;;;;;;;1.95;1.58;;;5.70;99.90;;;;;;5057275;28;20488;-79
2023/01/28 10:50:51;;;;;;;0.63;0.63;;;5.60;99.90;;;;;;5055806;28;20108;-77
2023/01/28 10:53:18;;;;;;;0.10;0.10;;;5.80;99.90;;;;;;5050857;28;20512;-80
2023/01/28 10:55:55;;;;;;;0.60;0.60;;;5.90;99.90;;;;;;5051338;28;20073;-80
2023/01/28 10:58:24;;;;;;;4.82;2.50;;;5.80;99.90;;;;;;5054575;28;20021;-79
2023/01/28 11:00:55;;;;;;;1.33;1.15;;;5.80;99.90;;;;;;5060711;28;20024;-79
2023/01/28 11:03:26;;;;;;;0.10;0.10;;;5.70;99.90;;;;;;5051948;28;20036;-80
2023/01/28 11:05:53;;;;;;;4.38;1.20;;;5.60;99.90;;;;;;5054753;28;20039;-80
2023/01/28 11:08:21;;;;;;;3.83;1.00;;;5.30;99.90;;;;;;5056481;28;20033;-76
2023/01/28 11:10:47;;;;;;;1.75;1.00;;;5.30;99.90;;;;;;5054927;28;20116;-80
2023/01/28 11:13:26;;;;;;;0.93;0.90;;;5.30;99.90;;;;;;5058088;28;20024;-79
2023/01/28 11:16:05;;;;;;;0.45;0.45;;;5.40;99.90;;;;;;5051709;28;20108;-80
2023/01/28 11:18:39;;;;;;;0.30;0.30;;;5.60;99.90;;;;;;5066114;28;20021;-79
2023/01/28 11:21:14;;;;;;;3.75;1.65;;;5.90;99.90;;;;;;5057035;28;20127;-80
2023/01/28 11:23:50;;;;;;;0.40;0.40;;;5.80;99.90;;;;;;5049394;28;20036;-81
2023/01/28 11:26:31;;;;;;;2.72;1.73;;;5.90;99.90;;;;;;5047585;28;20029;-82
2023/01/28 11:28:56;;;;;;;0.10;0.10;;;5.70;99.90;;;;;;5044829;28;20025;-79
2023/01/28 11:31:23;;;;;;;0.22;0.22;;;6.00;99.90;;;;;;5040017;28;20024;-76
2023/01/28 11:33:49;;;;;;;0.22;0.22;;;6.10;99.90;;;;;;5046488;28;20115;-81
2023/01/28 11:36:17;;;;;;;0.00;0.00;;;6.20;99.90;;;;;;5047384;28;20119;-79
2023/01/28 11:38:55;;;;;;;1.92;1.13;;;6.40;99.90;;;;;;5050384;28;20389;-80
2023/01/28 11:41:36;;;;;;;1.25;1.23;;;6.40;99.90;;;;;;5052392;28;20029;-80
2023/01/28 11:44:22;;;;;;;0.32;0.32;;;6.50;99.90;;;;;;5038068;28;20025;-77
2023/01/28 11:47:03;;;;;;;1.02;0.40;;;6.60;99.90;;;;;;5036782;28;20108;-78
2023/01/28 11:49:43;;;;;;;2.58;1.55;;;7.60;99.90;;;;;;5042309;28;20024;-76
2023/01/28 11:52:18;;;;;;;1.38;0.98;;;8.90;99.90;;;;;;5051600;28;20033;-76
2023/01/28 11:54:58;;;;;;;0.10;0.10;;;10.90;99.90;;;;;;5050094;28;20033;-77
2023/01/28 11:57:42;;;;;;;2.72;2.05;;;11.90;98.70;;;;;;5052290;28;20029;-77
2023/01/28 12:00:26;;;;;;;0.30;0.30;;;11.90;97.30;;;;;;5051574;28;20032;-76
2023/01/28 12:03:17;;;;;;;0.90;0.32;;;12.10;95.90;;;;;;5052289;28;20082;-77
2023/01/28 12:05:50;;;;;;;3.30;2.00;;;12.60;95.20;;;;;;5038691;28;20473;-77
2023/01/28 12:08:19;;;;;;;0.43;0.43;;;11.50;94.90;;;;;;5051833;28;20563;-76
2023/01/28 12:11:06;;;;;;;3.05;1.42;;;11.70;96.60;;;;;;5052533;28;20029;-76
2023/01/28 12:13:35;;;;;;;0.15;0.15;;;11.30;95.00;;;;;;5051409;28;20025;-77
2023/01/28 12:16:33;;;;;;;1.40;0.98;;;11.50;96.50;;;;;;5052343;28;20037;-77
2023/01/28 12:19:22;;;;;;;2.25;0.93;;;11.50;96.70;;;;;;5036704;28;20473;-76
2023/01/28 12:21:56;;;;;;;0.82;0.82;;;11.70;95.00;;;;;;5049956;28;20025;-74
2023/01/28 12:24:59;;;;;;;0.68;0.65;;;12.10;95.30;;;;;;5052342;28;20477;-77
2023/01/28 12:27:31;;;;;;;0.10;0.10;;;12.10;95.80;;;;;;5040514;28;20036;-77
2023/01/28 12:30:05;;;;;;;0.28;0.28;;;12.80;94.50;;;;;;5052251;28;20033;-77
2023/01/28 12:32:47;;;;;;;0.40;0.35;;;13.20;93.70;;;;;;5052170;28;20061;-77
2023/01/28 12:35:31;;;;;;;;;;;13.50;93.00;;;;;;5052479;28;20029;-77
2023/01/28 12:38:06;;;;;;;0.63;0.40;;;12.70;93.90;;;;;;5033881;28;19919;-77
2023/01/28 12:40:53;;;;;;;0.47;0.47;;;13.70;93.30;;;;;;5052139;28;20108;-77
2023/01/28 12:43:44;;;;;;;1.13;0.63;;;14.60;92.80;;;;;;5050885;28;20489;-77
2023/01/28 12:46:21;;;;;;;0.10;0.10;;;14.80;92.40;;;;;;5039666;28;20043;-77
2023/01/28 12:49:13;;;;;;;1.40;1.30;;;16.30;91.20;;;;;;5051750;28;20415;-77
2023/01/28 12:51:58;;;;;;;0.97;0.93;;;15.60;90.70;;;;;;5050628;28;20029;-77
2023/01/28 12:54:27;;;;;;;0.15;0.15;;;14.50;91.10;;;;;;5038465;28;20263;-77
2023/01/28 12:56:55;;;;;;;0.57;0.32;;;14.00;92.20;;;;;;5050733;28;20029;-77
2023/01/28 12:59:46;;;;;;;2.78;1.30;;;14.20;91.50;;;;;;5051810;28;20389;-77
2023/01/28 13:02:11;;;;;;;0.10;0.10;;;13.20;91.80;;;;;;5051773;28;20029;-77
2023/01/28 13:04:58;;;;;;;1.65;0.50;;;13.50;92.80;;;;;;5051997;28;20044;-77
2023/01/28 13:08:06;;;;;;;0.85;0.25;;;13.00;92.30;;;;;;5053920;28;20116;-77
2023/01/28 13:10:43;;;;;;;0.55;0.45;;;12.50;93.00;;;;;;5055087;28;20112;-77
2023/01/28 13:13:30;;;;;;;0.75;0.75;;;11.80;93.90;;;;;;5054116;28;20037;-77
2023/01/28 13:15:56;;;;;;;3.78;0.90;;;10.30;95.90;;;;;;5055623;28;20386;-77
2023/01/28 13:18:33;;;;;;;1.20;0.68;;;11.20;95.30;;;;;;5055097;28;20469;-76
2023/01/28 13:21:00;;;;;;;0.43;0.40;;;10.70;95.30;;;;;;5053839;28;20508;-76
2023/01/28 13:23:43;;;;;;;0.73;0.73;;;9.90;96.10;;;;;;5055299;28;20242;-77
2023/01/28 13:26:28;;;;;;;0.47;0.47;;;9.70;97.00;;;;;;5055293;28;20032;-77
2023/01/28 13:29:08;;;;;;;0.82;0.82;;;9.70;97.20;;;;;;5055195;28;20044;-76
2023/01/28 13:31:40;;;;;;;0.60;0.60;;;8.40;98.30;;;;;;5055065;28;20033;-76
2023/01/28 13:34:08;;;;;;;0.30;0.30;;;8.00;99.70;;;;;;5055140;28;20028;-76
2023/01/28 13:36:44;;;;;;;0.65;0.63;;;8.10;99.80;;;;;;5053591;28;20060;-76
2023/01/28 13:39:13;;;;;;;2.17;1.40;;;8.20;99.90;;;;;;5054815;28;20536;-76
2023/01/28 13:42:08;;;;;;;1.73;0.32;;;9.10;99.50;;;;;;5053522;28;20028;-77
2023/01/28 13:44:35;;;;;;;0.75;0.75;;;9.60;97.70;;;;;;5039106;28;20044;-76
2023/01/28 13:47:04;;;;;;;0.77;0.77;;;9.60;97.70;;;;;;5049134;28;20053;-76
2023/01/28 13:49:43;;;;;;;3.40;1.50;;;10.10;97.30;;;;;;5054493;28;20029;-76
2023/01/28 13:52:24;;;;;;;0.10;0.10;;;9.40;97.60;;;;;;5054839;28;20378;-77
2023/01/28 13:55:02;;;;;;;0.10;0.10;;;10.20;97.20;;;;;;5054699;28;20447;-77
2023/01/28 13:57:38;;;;;;;0.10;0.10;;;10.90;96.60;;;;;;5053642;28;20033;-77